HAZ1615 ZUUU-ZUGY
Flight info
| Callsign | HAZ1615 |
|---|---|
| Flight time | 0h 54m |
| Altitude | 24600 |
| Route | IDBOR B330 QNX |
| Aircraft | A20N/M-SDE2E3FGHIRWXY/LB1 |
Departure
| Time | 2026-05-05 10:44 |
|---|---|
| Airport | Chengdu Shuangliu International Airport (ZUUU) |
Arrival
| Time | 2026-05-05 11:38 |
|---|---|
| Airport | Guiyang Longdongbao International Airport (ZUGY) |
| Time | Latitude | Longitude | Altitude | Speed | Heading |
|---|---|---|---|---|---|
| 2026-05-05 10:23 | 30.56930 | 103.94985 | 1689 ft | 0 kts | 21° |
| 2026-05-05 10:33 | 30.56922 | 103.94982 | 1689 ft | 2 kts | 17° |
| 2026-05-05 10:34 | 30.56908 | 103.94976 | 1689 ft | 2 kts | 23° |
| 2026-05-05 10:34 | 30.56894 | 103.94969 | 1689 ft | 2 kts | 21° |
| 2026-05-05 10:34 | 30.56883 | 103.94965 | 1689 ft | 0 kts | 22° |
| 2026-05-05 10:34 | 30.56871 | 103.94961 | 1689 ft | 2 kts | 349° |
| 2026-05-05 10:35 | 30.56858 | 103.94968 | 1689 ft | 2 kts | 309° |
| 2026-05-05 10:35 | 30.56854 | 103.94976 | 1689 ft | 1 kts | 287° |
| 2026-05-05 10:35 | 30.56852 | 103.94982 | 1689 ft | 0 kts | 291° |
| 2026-05-05 10:39 | 30.56853 | 103.94982 | 1689 ft | 0 kts | 291° |
| 2026-05-05 10:39 | 30.56856 | 103.94971 | 1689 ft | 2 kts | 292° |
| 2026-05-05 10:39 | 30.56866 | 103.94944 | 1689 ft | 5 kts | 292° |
| 2026-05-05 10:39 | 30.56885 | 103.94892 | 1689 ft | 8 kts | 291° |
| 2026-05-05 10:40 | 30.56911 | 103.94816 | 1689 ft | 11 kts | 291° |
| 2026-05-05 10:40 | 30.56940 | 103.94733 | 1689 ft | 11 kts | 292° |
| 2026-05-05 10:40 | 30.56971 | 103.94647 | 1689 ft | 12 kts | 301° |
| 2026-05-05 10:40 | 30.57034 | 103.94588 | 1689 ft | 11 kts | 297° |
| 2026-05-05 10:41 | 30.57001 | 103.94514 | 1689 ft | 12 kts | 203° |
| 2026-05-05 10:41 | 30.56912 | 103.94476 | 1689 ft | 14 kts | 202° |
| 2026-05-05 10:41 | 30.56813 | 103.94429 | 1689 ft | 16 kts | 202° |
| 2026-05-05 10:41 | 30.56701 | 103.94378 | 1689 ft | 17 kts | 202° |
| 2026-05-05 10:42 | 30.56455 | 103.94264 | 1689 ft | 20 kts | 200° |
| 2026-05-05 10:42 | 30.56371 | 103.94227 | 1689 ft | 11 kts | 201° |
| 2026-05-05 10:42 | 30.56309 | 103.94174 | 1689 ft | 11 kts | 255° |
| 2026-05-05 10:43 | 30.56329 | 103.94086 | 1689 ft | 12 kts | 292° |
| 2026-05-05 10:43 | 30.56385 | 103.94025 | 1689 ft | 12 kts | 0° |
| 2026-05-05 10:43 | 30.56471 | 103.94057 | 1689 ft | 13 kts | 22° |
| 2026-05-05 10:43 | 30.56687 | 103.94154 | 1689 ft | 65 kts | 22° |
| 2026-05-05 10:44 | 30.57315 | 103.94450 | 1690 ft | 126 kts | 20° |
| 2026-05-05 10:44 | 30.58282 | 103.94902 | 1765 ft | 166 kts | 24° |
| 2026-05-05 10:44 | 30.59335 | 103.95404 | 2357 ft | 160 kts | 25° |
| 2026-05-05 10:44 | 30.60345 | 103.95906 | 2946 ft | 158 kts | 25° |
| 2026-05-05 10:45 | 30.61380 | 103.96390 | 3434 ft | 164 kts | 24° |
| 2026-05-05 10:45 | 30.62326 | 103.96817 | 3711 ft | 174 kts | 23° |
| 2026-05-05 10:45 | 30.63339 | 103.97276 | 3963 ft | 187 kts | 23° |
| 2026-05-05 10:45 | 30.64597 | 103.97853 | 4267 ft | 203 kts | 23° |
| 2026-05-05 10:46 | 30.65986 | 103.98496 | 4520 ft | 226 kts | 23° |
| 2026-05-05 10:46 | 30.67490 | 103.99195 | 4894 ft | 244 kts | 25° |
| 2026-05-05 10:46 | 30.68968 | 104.00280 | 5294 ft | 260 kts | 46° |
| 2026-05-05 10:46 | 30.70036 | 104.02023 | 5754 ft | 275 kts | 62° |
| 2026-05-05 10:47 | 30.70947 | 104.04014 | 6497 ft | 281 kts | 63° |
| 2026-05-05 10:47 | 30.71859 | 104.06027 | 7330 ft | 285 kts | 63° |
| 2026-05-05 10:47 | 30.72781 | 104.08036 | 8135 ft | 289 kts | 63° |
| 2026-05-05 10:47 | 30.73735 | 104.10094 | 8957 ft | 293 kts | 63° |
| 2026-05-05 10:48 | 30.74714 | 104.12196 | 9780 ft | 298 kts | 63° |
| 2026-05-05 10:48 | 30.75668 | 104.14346 | 10558 ft | 302 kts | 70° |
| 2026-05-05 10:48 | 30.75991 | 104.16720 | 11260 ft | 303 kts | 98° |
| 2026-05-05 10:48 | 30.75396 | 104.19027 | 11970 ft | 301 kts | 123° |
| 2026-05-05 10:49 | 30.74036 | 104.20819 | 12662 ft | 298 kts | 147° |
| 2026-05-05 10:49 | 30.72176 | 104.21797 | 13352 ft | 296 kts | 170° |
| 2026-05-05 10:49 | 30.70150 | 104.21819 | 14032 ft | 296 kts | 193° |
| 2026-05-05 10:49 | 30.68199 | 104.21089 | 14697 ft | 299 kts | 200° |
| 2026-05-05 10:50 | 30.66228 | 104.20279 | 15314 ft | 304 kts | 200° |
| 2026-05-05 10:50 | 30.64214 | 104.19460 | 15934 ft | 309 kts | 200° |
| 2026-05-05 10:50 | 30.62179 | 104.18635 | 16566 ft | 312 kts | 200° |
| 2026-05-05 10:50 | 30.60111 | 104.17797 | 17160 ft | 317 kts | 200° |
| 2026-05-05 10:51 | 30.58021 | 104.16952 | 17747 ft | 321 kts | 200° |
| 2026-05-05 10:51 | 30.55919 | 104.16104 | 18307 ft | 325 kts | 200° |
| 2026-05-05 10:51 | 30.53776 | 104.15239 | 18895 ft | 329 kts | 201° |
| 2026-05-05 10:51 | 30.51613 | 104.14367 | 19473 ft | 332 kts | 201° |
| 2026-05-05 10:52 | 30.49403 | 104.13475 | 20034 ft | 337 kts | 201° |
| 2026-05-05 10:52 | 30.47171 | 104.12565 | 20594 ft | 340 kts | 203° |
| 2026-05-05 10:52 | 30.44963 | 104.11555 | 21021 ft | 348 kts | 204° |
| 2026-05-05 10:52 | 30.42695 | 104.10493 | 21256 ft | 361 kts | 204° |
| 2026-05-05 10:53 | 30.40300 | 104.09368 | 21489 ft | 374 kts | 204° |
| 2026-05-05 10:53 | 30.37839 | 104.08217 | 21709 ft | 387 kts | 204° |
| 2026-05-05 10:53 | 30.35333 | 104.07046 | 21922 ft | 399 kts | 204° |
| 2026-05-05 10:53 | 30.32707 | 104.05822 | 22125 ft | 410 kts | 205° |
| 2026-05-05 10:54 | 30.29964 | 104.04730 | 22288 ft | 425 kts | 194° |
| 2026-05-05 10:54 | 30.26982 | 104.04586 | 22455 ft | 441 kts | 175° |
| 2026-05-05 10:54 | 30.23993 | 104.05570 | 22615 ft | 457 kts | 157° |
| 2026-05-05 10:54 | 30.21286 | 104.07628 | 22845 ft | 467 kts | 143° |
| 2026-05-05 10:55 | 30.18747 | 104.09952 | 23205 ft | 471 kts | 143° |
| 2026-05-05 10:55 | 30.16162 | 104.12305 | 23601 ft | 474 kts | 143° |
| 2026-05-05 10:55 | 30.13564 | 104.14659 | 23962 ft | 478 kts | 143° |
| 2026-05-05 10:55 | 30.10931 | 104.17032 | 24264 ft | 482 kts | 143° |
| 2026-05-05 10:56 | 30.08269 | 104.19421 | 24336 ft | 483 kts | 143° |
| 2026-05-05 10:56 | 30.05623 | 104.21793 | 24338 ft | 483 kts | 143° |
| 2026-05-05 10:56 | 30.02984 | 104.24155 | 24339 ft | 483 kts | 143° |
| 2026-05-05 10:56 | 30.00318 | 104.26537 | 24340 ft | 483 kts | 143° |
| 2026-05-05 10:57 | 29.97654 | 104.28917 | 24337 ft | 483 kts | 143° |
| 2026-05-05 10:57 | 29.95017 | 104.31269 | 24337 ft | 484 kts | 143° |
| 2026-05-05 10:57 | 29.92329 | 104.33665 | 24339 ft | 483 kts | 143° |
| 2026-05-05 10:57 | 29.89693 | 104.36011 | 24343 ft | 483 kts | 143° |
| 2026-05-05 10:58 | 29.87041 | 104.38371 | 24350 ft | 483 kts | 143° |
| 2026-05-05 10:58 | 29.84370 | 104.40748 | 24349 ft | 483 kts | 143° |
| 2026-05-05 10:58 | 29.81719 | 104.43104 | 24350 ft | 483 kts | 143° |
| 2026-05-05 10:58 | 29.79071 | 104.45457 | 24353 ft | 483 kts | 143° |
| 2026-05-05 10:59 | 29.76414 | 104.47814 | 24357 ft | 482 kts | 143° |
| 2026-05-05 10:59 | 29.73759 | 104.50169 | 24362 ft | 482 kts | 143° |
| 2026-05-05 10:59 | 29.71079 | 104.52544 | 24361 ft | 483 kts | 143° |
| 2026-05-05 10:59 | 29.68425 | 104.54896 | 24361 ft | 483 kts | 143° |
| 2026-05-05 11:00 | 29.65764 | 104.57252 | 24357 ft | 483 kts | 143° |
| 2026-05-05 11:00 | 29.63108 | 104.59602 | 24356 ft | 484 kts | 143° |
| 2026-05-05 11:00 | 29.60451 | 104.61951 | 24354 ft | 483 kts | 143° |
| 2026-05-05 11:00 | 29.57759 | 104.64327 | 24347 ft | 484 kts | 143° |
| 2026-05-05 11:01 | 29.55099 | 104.66676 | 24344 ft | 484 kts | 144° |
| 2026-05-05 11:01 | 29.52453 | 104.69010 | 24341 ft | 483 kts | 144° |
| 2026-05-05 11:01 | 29.49782 | 104.71365 | 24337 ft | 484 kts | 144° |
| 2026-05-05 11:01 | 29.47130 | 104.73701 | 24335 ft | 483 kts | 144° |
| 2026-05-05 11:02 | 29.44443 | 104.76068 | 24330 ft | 483 kts | 144° |
| 2026-05-05 11:02 | 29.41803 | 104.78392 | 24325 ft | 483 kts | 144° |
| 2026-05-05 11:02 | 29.39121 | 104.80750 | 24320 ft | 483 kts | 144° |
| 2026-05-05 11:02 | 29.36449 | 104.83068 | 24320 ft | 483 kts | 146° |
| 2026-05-05 11:03 | 29.33653 | 104.85198 | 24316 ft | 482 kts | 150° |
| 2026-05-05 11:03 | 29.30725 | 104.87072 | 24314 ft | 481 kts | 155° |
| 2026-05-05 11:03 | 29.27695 | 104.88693 | 24312 ft | 480 kts | 158° |
| 2026-05-05 11:03 | 29.24665 | 104.90221 | 24307 ft | 480 kts | 158° |
| 2026-05-05 11:04 | 29.21563 | 104.91769 | 24303 ft | 480 kts | 158° |
| 2026-05-05 11:04 | 29.18510 | 104.93294 | 24301 ft | 480 kts | 158° |
| 2026-05-05 11:04 | 29.15475 | 104.94817 | 24301 ft | 480 kts | 158° |
| 2026-05-05 11:04 | 29.12396 | 104.96366 | 24296 ft | 480 kts | 158° |
| 2026-05-05 11:05 | 29.09351 | 104.97904 | 24292 ft | 480 kts | 158° |
| 2026-05-05 11:05 | 29.06278 | 104.99458 | 24292 ft | 480 kts | 158° |
| 2026-05-05 11:05 | 29.03242 | 105.00992 | 24289 ft | 480 kts | 158° |
| 2026-05-05 11:05 | 29.00189 | 105.02534 | 24290 ft | 481 kts | 158° |
| 2026-05-05 11:06 | 28.97119 | 105.04082 | 24296 ft | 480 kts | 158° |
| 2026-05-05 11:06 | 28.94049 | 105.05629 | 24303 ft | 480 kts | 158° |
| 2026-05-05 11:06 | 28.90971 | 105.07171 | 24304 ft | 480 kts | 158° |
| 2026-05-05 11:06 | 28.87954 | 105.08680 | 24299 ft | 480 kts | 158° |
| 2026-05-05 11:07 | 28.84899 | 105.10205 | 24296 ft | 480 kts | 158° |
| 2026-05-05 11:07 | 28.81821 | 105.11742 | 24300 ft | 479 kts | 158° |
| 2026-05-05 11:07 | 28.78766 | 105.13284 | 24302 ft | 480 kts | 156° |
| 2026-05-05 11:07 | 28.75775 | 105.14970 | 24303 ft | 480 kts | 154° |
| 2026-05-05 11:08 | 28.72818 | 105.16753 | 24302 ft | 481 kts | 153° |
| 2026-05-05 11:08 | 28.69876 | 105.18538 | 24306 ft | 482 kts | 153° |
| 2026-05-05 11:08 | 28.66924 | 105.20329 | 24309 ft | 481 kts | 153° |
| 2026-05-05 11:08 | 28.63941 | 105.22137 | 24312 ft | 481 kts | 153° |
| 2026-05-05 11:09 | 28.60979 | 105.23931 | 24318 ft | 481 kts | 153° |
| 2026-05-05 11:09 | 28.58026 | 105.25718 | 24325 ft | 482 kts | 153° |
| 2026-05-05 11:09 | 28.55088 | 105.27494 | 24330 ft | 482 kts | 153° |
| 2026-05-05 11:09 | 28.52111 | 105.29288 | 24340 ft | 481 kts | 153° |
| 2026-05-05 11:10 | 28.49182 | 105.31057 | 24349 ft | 481 kts | 153° |
| 2026-05-05 11:10 | 28.46216 | 105.32845 | 24359 ft | 482 kts | 153° |
| 2026-05-05 11:10 | 28.43252 | 105.34629 | 24366 ft | 481 kts | 153° |
| 2026-05-05 11:10 | 28.40302 | 105.36405 | 24378 ft | 481 kts | 153° |
| 2026-05-05 11:11 | 28.37353 | 105.38180 | 24388 ft | 481 kts | 153° |
| 2026-05-05 11:11 | 28.34366 | 105.39977 | 24391 ft | 482 kts | 153° |
| 2026-05-05 11:11 | 28.31407 | 105.41756 | 24401 ft | 481 kts | 153° |
| 2026-05-05 11:11 | 28.28472 | 105.43518 | 24421 ft | 482 kts | 153° |
| 2026-05-05 11:12 | 28.25501 | 105.45301 | 24433 ft | 481 kts | 153° |
| 2026-05-05 11:12 | 28.22520 | 105.47089 | 24449 ft | 480 kts | 153° |
| 2026-05-05 11:12 | 28.19601 | 105.48840 | 24457 ft | 481 kts | 153° |
| 2026-05-05 11:12 | 28.16619 | 105.50626 | 24470 ft | 481 kts | 153° |
| 2026-05-05 11:13 | 28.13685 | 105.52383 | 24477 ft | 481 kts | 153° |
| 2026-05-05 11:13 | 28.10703 | 105.54166 | 24475 ft | 481 kts | 153° |
| 2026-05-05 11:13 | 28.07721 | 105.55844 | 24469 ft | 480 kts | 158° |
| 2026-05-05 11:13 | 28.04593 | 105.57159 | 24468 ft | 478 kts | 165° |
| 2026-05-05 11:14 | 28.01361 | 105.58054 | 24462 ft | 476 kts | 172° |
| 2026-05-05 11:14 | 27.98089 | 105.58625 | 24464 ft | 475 kts | 174° |
| 2026-05-05 11:14 | 27.94826 | 105.59119 | 24472 ft | 475 kts | 174° |
| 2026-05-05 11:14 | 27.91512 | 105.59615 | 24469 ft | 475 kts | 174° |
| 2026-05-05 11:15 | 27.88249 | 105.60113 | 24464 ft | 475 kts | 174° |
| 2026-05-05 11:15 | 27.84980 | 105.60623 | 24285 ft | 475 kts | 174° |
| 2026-05-05 11:15 | 27.81743 | 105.61315 | 24041 ft | 474 kts | 167° |
| 2026-05-05 11:15 | 27.78606 | 105.62434 | 23791 ft | 473 kts | 160° |
| 2026-05-05 11:16 | 27.75593 | 105.63975 | 23544 ft | 473 kts | 154° |
| 2026-05-05 11:16 | 27.72712 | 105.65710 | 23300 ft | 471 kts | 153° |
| 2026-05-05 11:16 | 27.69831 | 105.67498 | 23053 ft | 469 kts | 153° |
| 2026-05-05 11:16 | 27.66956 | 105.69199 | 22808 ft | 466 kts | 155° |
| 2026-05-05 11:17 | 27.64023 | 105.70805 | 22570 ft | 464 kts | 156° |
| 2026-05-05 11:17 | 27.61140 | 105.72369 | 22330 ft | 462 kts | 156° |
| 2026-05-05 11:17 | 27.58244 | 105.73935 | 22098 ft | 459 kts | 156° |
| 2026-05-05 11:17 | 27.55378 | 105.75481 | 21865 ft | 457 kts | 156° |
| 2026-05-05 11:18 | 27.52507 | 105.77032 | 21632 ft | 455 kts | 156° |
| 2026-05-05 11:18 | 27.49674 | 105.78560 | 21401 ft | 452 kts | 156° |
| 2026-05-05 11:18 | 27.46833 | 105.80093 | 21164 ft | 451 kts | 156° |
| 2026-05-05 11:18 | 27.43995 | 105.81623 | 20930 ft | 448 kts | 156° |
| 2026-05-05 11:19 | 27.41202 | 105.83128 | 20699 ft | 447 kts | 156° |
| 2026-05-05 11:19 | 27.38416 | 105.84629 | 20477 ft | 445 kts | 156° |
| 2026-05-05 11:19 | 27.35623 | 105.86133 | 20244 ft | 443 kts | 156° |
| 2026-05-05 11:19 | 27.32829 | 105.87635 | 20010 ft | 441 kts | 156° |
| 2026-05-05 11:20 | 27.30066 | 105.89122 | 19773 ft | 439 kts | 156° |
| 2026-05-05 11:20 | 27.27306 | 105.90605 | 19541 ft | 437 kts | 156° |
| 2026-05-05 11:20 | 27.25107 | 105.91787 | 19353 ft | 436 kts | 156° |
| 2026-05-05 11:20 | 27.22654 | 105.93104 | 19142 ft | 434 kts | 156° |
| 2026-05-05 11:21 | 27.19949 | 105.94556 | 18905 ft | 432 kts | 156° |
| 2026-05-05 11:21 | 27.17249 | 105.96004 | 18664 ft | 429 kts | 156° |
| 2026-05-05 11:21 | 27.14557 | 105.97448 | 18425 ft | 427 kts | 156° |
| 2026-05-05 11:21 | 27.11888 | 105.98877 | 18197 ft | 426 kts | 156° |
| 2026-05-05 11:22 | 27.09202 | 106.00314 | 17961 ft | 423 kts | 156° |
| 2026-05-05 11:22 | 27.06573 | 106.01779 | 17723 ft | 423 kts | 152° |
| 2026-05-05 11:22 | 27.04166 | 106.03655 | 17482 ft | 423 kts | 142° |
| 2026-05-05 11:22 | 27.02063 | 106.05989 | 17245 ft | 424 kts | 132° |
| 2026-05-05 11:23 | 27.00226 | 106.08566 | 17012 ft | 422 kts | 129° |
| 2026-05-05 11:23 | 26.98454 | 106.11164 | 16765 ft | 421 kts | 128° |
| 2026-05-05 11:23 | 26.96693 | 106.13744 | 16418 ft | 418 kts | 129° |
| 2026-05-05 11:23 | 26.94975 | 106.16376 | 15961 ft | 416 kts | 123° |
| 2026-05-05 11:24 | 26.93704 | 106.19260 | 15436 ft | 414 kts | 111° |
| 2026-05-05 11:24 | 26.92963 | 106.22359 | 14889 ft | 412 kts | 102° |
| 2026-05-05 11:24 | 26.92478 | 106.25504 | 14341 ft | 408 kts | 101° |
| 2026-05-05 11:24 | 26.92033 | 106.28616 | 13783 ft | 404 kts | 101° |
| 2026-05-05 11:25 | 26.91577 | 106.31715 | 13234 ft | 399 kts | 101° |
| 2026-05-05 11:25 | 26.91128 | 106.34731 | 12663 ft | 396 kts | 101° |
| 2026-05-05 11:25 | 26.90742 | 106.37785 | 12029 ft | 395 kts | 99° |
| 2026-05-05 11:25 | 26.90372 | 106.40808 | 11505 ft | 390 kts | 100° |
| 2026-05-05 11:26 | 26.90009 | 106.43796 | 11146 ft | 380 kts | 99° |
| 2026-05-05 11:26 | 26.89660 | 106.46648 | 10864 ft | 368 kts | 99° |
| 2026-05-05 11:26 | 26.89317 | 106.49447 | 10624 ft | 351 kts | 100° |
| 2026-05-05 11:26 | 26.89001 | 106.52048 | 10412 ft | 326 kts | 100° |
| 2026-05-05 11:27 | 26.88702 | 106.54472 | 10240 ft | 308 kts | 100° |
| 2026-05-05 11:27 | 26.88414 | 106.56789 | 10090 ft | 298 kts | 100° |
| 2026-05-05 11:27 | 26.88128 | 106.59074 | 9946 ft | 291 kts | 100° |
| 2026-05-05 11:27 | 26.87849 | 106.61298 | 9598 ft | 292 kts | 101° |
| 2026-05-05 11:28 | 26.87567 | 106.63550 | 9251 ft | 293 kts | 100° |
| 2026-05-05 11:28 | 26.87288 | 106.65788 | 8989 ft | 288 kts | 101° |
| 2026-05-05 11:28 | 26.87017 | 106.67968 | 8871 ft | 277 kts | 101° |
| 2026-05-05 11:28 | 26.86757 | 106.70070 | 8787 ft | 265 kts | 101° |
| 2026-05-05 11:29 | 26.86511 | 106.72057 | 8702 ft | 250 kts | 102° |
| 2026-05-05 11:29 | 26.86275 | 106.73948 | 8618 ft | 245 kts | 102° |
| 2026-05-05 11:29 | 26.85999 | 106.75829 | 8388 ft | 241 kts | 105° |
| 2026-05-05 11:29 | 26.85696 | 106.77661 | 8103 ft | 240 kts | 105° |
| 2026-05-05 11:30 | 26.85393 | 106.79478 | 7845 ft | 237 kts | 105° |
| 2026-05-05 11:30 | 26.85094 | 106.81283 | 7563 ft | 236 kts | 105° |
| 2026-05-05 11:30 | 26.84797 | 106.83077 | 7287 ft | 233 kts | 107° |
| 2026-05-05 11:30 | 26.84196 | 106.84683 | 7003 ft | 220 kts | 138° |
| 2026-05-05 11:31 | 26.82960 | 106.85536 | 6950 ft | 197 kts | 168° |
| 2026-05-05 11:31 | 26.81691 | 106.85591 | 7019 ft | 170 kts | 188° |
| 2026-05-05 11:31 | 26.80569 | 106.85384 | 6980 ft | 160 kts | 190° |
| 2026-05-05 11:31 | 26.79476 | 106.85171 | 6953 ft | 159 kts | 190° |
| 2026-05-05 11:32 | 26.78385 | 106.84958 | 6944 ft | 159 kts | 190° |
| 2026-05-05 11:32 | 26.77285 | 106.84746 | 6941 ft | 159 kts | 190° |
| 2026-05-05 11:32 | 26.76198 | 106.84538 | 6940 ft | 159 kts | 190° |
| 2026-05-05 11:32 | 26.75097 | 106.84328 | 6945 ft | 159 kts | 190° |
| 2026-05-05 11:33 | 26.74012 | 106.84099 | 6949 ft | 159 kts | 191° |
| 2026-05-05 11:33 | 26.72930 | 106.83863 | 6944 ft | 152 kts | 191° |
| 2026-05-05 11:33 | 26.71979 | 106.83663 | 6878 ft | 129 kts | 191° |
| 2026-05-05 11:33 | 26.71110 | 106.83485 | 6720 ft | 126 kts | 190° |
| 2026-05-05 11:34 | 26.70244 | 106.83312 | 6559 ft | 125 kts | 189° |
| 2026-05-05 11:34 | 26.69385 | 106.83141 | 6397 ft | 124 kts | 189° |
| 2026-05-05 11:34 | 26.68532 | 106.82974 | 6238 ft | 124 kts | 189° |
| 2026-05-05 11:34 | 26.67687 | 106.82810 | 6082 ft | 124 kts | 189° |
| 2026-05-05 11:35 | 26.66832 | 106.82645 | 5926 ft | 124 kts | 189° |
| 2026-05-05 11:35 | 26.65984 | 106.82480 | 5768 ft | 124 kts | 189° |
| 2026-05-05 11:35 | 26.65130 | 106.82314 | 5608 ft | 125 kts | 189° |
| 2026-05-05 11:35 | 26.64264 | 106.82147 | 5444 ft | 125 kts | 189° |
| 2026-05-05 11:36 | 26.63396 | 106.81979 | 5284 ft | 126 kts | 189° |
| 2026-05-05 11:36 | 26.62540 | 106.81811 | 5129 ft | 126 kts | 189° |
| 2026-05-05 11:36 | 26.61667 | 106.81644 | 4961 ft | 126 kts | 190° |
| 2026-05-05 11:36 | 26.60807 | 106.81477 | 4801 ft | 126 kts | 190° |
| 2026-05-05 11:37 | 26.59926 | 106.81305 | 4643 ft | 127 kts | 190° |
| 2026-05-05 11:37 | 26.59058 | 106.81136 | 4478 ft | 128 kts | 190° |
| 2026-05-05 11:37 | 26.58176 | 106.80965 | 4320 ft | 128 kts | 190° |
| 2026-05-05 11:37 | 26.57287 | 106.80791 | 4159 ft | 129 kts | 191° |
| 2026-05-05 11:38 | 26.56402 | 106.80611 | 3983 ft | 129 kts | 192° |
| 2026-05-05 11:38 | 26.55518 | 106.80451 | 3808 ft | 130 kts | 191° |
| 2026-05-05 11:38 | 26.54632 | 106.80278 | 3746 ft | 118 kts | 191° |
| 2026-05-05 11:38 | 26.54121 | 106.80176 | 3746 ft | 33 kts | 191° |
| 2026-05-05 11:39 | 26.53904 | 106.80127 | 3746 ft | 29 kts | 193° |
| 2026-05-05 11:39 | 26.53718 | 106.80088 | 3745 ft | 24 kts | 196° |
| 2026-05-05 11:39 | 26.53572 | 106.80021 | 3745 ft | 16 kts | 213° |
| 2026-05-05 11:39 | 26.53493 | 106.79956 | 3745 ft | 11 kts | 220° |
| 2026-05-05 11:40 | 26.53475 | 106.79872 | 3745 ft | 11 kts | 277° |
| 2026-05-05 11:40 | 26.53511 | 106.79797 | 3745 ft | 11 kts | 339° |
| 2026-05-05 11:40 | 26.53596 | 106.79803 | 3745 ft | 12 kts | 10° |
| 2026-05-05 11:40 | 26.53685 | 106.79820 | 3745 ft | 13 kts | 10° |
| 2026-05-05 11:41 | 26.53773 | 106.79838 | 3745 ft | 14 kts | 10° |
| 2026-05-05 11:41 | 26.53842 | 106.79851 | 3745 ft | 14 kts | 9° |
| 2026-05-05 11:41 | 26.53952 | 106.79873 | 3746 ft | 17 kts | 10° |
| 2026-05-05 11:41 | 26.54072 | 106.79895 | 3746 ft | 17 kts | 9° |
| 2026-05-05 11:42 | 26.54193 | 106.79919 | 3746 ft | 12 kts | 12° |
| 2026-05-05 11:42 | 26.54253 | 106.79923 | 3746 ft | 6 kts | 342° |
| 2026-05-05 11:42 | 26.54296 | 106.79894 | 3746 ft | 7 kts | 327° |
| 2026-05-05 11:42 | 26.54344 | 106.79858 | 3746 ft | 8 kts | 324° |
| 2026-05-05 11:43 | 26.54346 | 106.79858 | 3746 ft | 0 kts | 324° |
| 2026-05-05 11:44 | 26.54345 | 106.79858 | 3746 ft | 0 kts | 324° |
| 2026-05-05 11:45 | 26.54953 | 106.80343 | 3747 ft | 128 kts | 191° |